createdAt,value
2023-02-08T00:01:57.581Z,6.97
2023-02-08T00:04:23.898Z,5.85
2023-02-08T00:06:50.447Z,6.07
2023-02-08T00:09:16.818Z,6.80
2023-02-08T00:11:43.109Z,6.35
2023-02-08T00:14:09.417Z,5.97
2023-02-08T00:16:35.724Z,4.53
2023-02-08T00:19:02.101Z,6.85
2023-02-08T00:21:28.378Z,6.32
2023-02-08T00:23:54.803Z,6.88
2023-02-08T00:26:21.134Z,7.25
2023-02-08T00:28:47.536Z,6.53
2023-02-08T00:31:13.968Z,7.53
2023-02-08T00:33:40.390Z,7.07
2023-02-08T00:36:08.383Z,7.55
2023-02-08T00:38:35.318Z,7.78
2023-02-08T00:41:01.727Z,8.23
2023-02-08T00:43:28.153Z,6.93
2023-02-08T00:45:59.024Z,7.80
2023-02-08T00:48:26.502Z,7.28
2023-02-08T00:51:04.567Z,7.60
2023-02-08T00:53:31.031Z,6.60
2023-02-08T00:55:57.692Z,6.93
2023-02-08T00:58:24.229Z,7.90
2023-02-08T01:00:52.851Z,7.63
2023-02-08T01:03:20.677Z,7.45
2023-02-08T01:05:47.078Z,7.38
2023-02-08T01:08:14.569Z,7.68
2023-02-08T01:10:41.337Z,7.97
2023-02-08T01:13:08.826Z,8.27
2023-02-08T01:15:35.321Z,7.65
2023-02-08T01:18:01.641Z,7.05
2023-02-08T01:20:29.912Z,8.30
2023-02-08T01:22:56.612Z,7.40
2023-02-08T01:25:23.078Z,7.45
2023-02-08T01:27:49.385Z,7.82
2023-02-08T01:30:15.832Z,7.93
2023-02-08T01:32:42.115Z,7.72
2023-02-08T01:35:08.430Z,7.80
2023-02-08T01:37:34.736Z,7.18
2023-02-08T01:40:01.048Z,7.30
2023-02-08T01:42:27.567Z,7.68
2023-02-08T01:45:20.778Z,8.32
2023-02-08T01:47:50.489Z,7.28
2023-02-08T01:50:19.842Z,6.70
2023-02-08T01:52:46.560Z,7.35
2023-02-08T01:55:18.497Z,7.60
2023-02-08T01:57:45.105Z,6.80
2023-02-08T02:00:18.072Z,7.68
2023-02-08T02:02:47.638Z,7.72
2023-02-08T02:05:14.371Z,7.15
2023-02-08T02:07:40.911Z,7.80
2023-02-08T02:10:21.411Z,7.38
2023-02-08T02:12:49.307Z,7.72
2023-02-08T02:15:15.610Z,8.00
2023-02-08T02:17:42.204Z,8.05
2023-02-08T02:20:26.968Z,8.18
2023-02-08T02:23:17.532Z,7.10
2023-02-08T02:26:20.035Z,8.65
2023-02-08T02:29:34.068Z,7.43
2023-02-08T02:32:23.806Z,8.07
2023-02-08T02:34:50.089Z,7.65
2023-02-08T02:37:43.020Z,7.55
2023-02-08T02:40:21.018Z,8.20
2023-02-08T02:43:14.985Z,7.28
2023-02-08T02:46:06.980Z,8.10
2023-02-08T02:48:44.946Z,8.07
2023-02-08T02:51:20.239Z,6.07
2023-02-08T02:54:02.304Z,7.07
2023-02-08T02:56:34.680Z,7.03
2023-02-08T02:59:05.685Z,7.00
2023-02-08T03:01:33.146Z,6.93
2023-02-08T03:03:59.646Z,6.53
2023-02-08T03:06:42.942Z,6.05
2023-02-08T03:09:11.933Z,5.50
2023-02-08T03:11:45.406Z,6.00
2023-02-08T03:14:29.661Z,5.55
2023-02-08T03:17:21.000Z,6.20
2023-02-08T03:20:05.389Z,5.85
2023-02-08T03:22:52.678Z,5.82
2023-02-08T03:25:24.416Z,5.93
2023-02-08T03:28:14.880Z,6.05
2023-02-08T03:31:05.640Z,6.28
2023-02-08T03:33:44.977Z,5.25
2023-02-08T03:36:23.202Z,4.90
2023-02-08T03:38:52.361Z,5.93
2023-02-08T03:41:26.039Z,5.88
2023-02-08T03:43:58.409Z,5.10
2023-02-08T03:46:29.560Z,5.63
2023-02-08T03:49:11.103Z,4.85
2023-02-08T03:51:41.295Z,5.45
2023-02-08T03:54:14.471Z,3.92
2023-02-08T03:56:46.910Z,3.20
2023-02-08T03:59:20.905Z,5.18
2023-02-08T04:02:19.016Z,5.40
2023-02-08T04:04:48.957Z,5.18
2023-02-08T04:07:17.485Z,5.88
2023-02-08T04:09:44.266Z,5.30
2023-02-08T04:12:10.840Z,5.75
2023-02-08T04:14:37.252Z,5.43
2023-02-08T04:17:04.128Z,5.18
2023-02-08T04:19:30.457Z,5.88
2023-02-08T04:21:56.831Z,5.43
2023-02-08T04:24:23.197Z,6.07
2023-02-08T04:26:49.536Z,5.15
2023-02-08T04:29:15.849Z,5.10
2023-02-08T04:31:42.280Z,5.95
2023-02-08T04:34:08.697Z,5.93
2023-02-08T04:36:35.121Z,5.90
2023-02-08T04:39:01.706Z,5.90
2023-02-08T04:41:28.051Z,5.97
2023-02-08T04:43:54.400Z,5.78
2023-02-08T04:46:20.784Z,6.97
2023-02-08T04:48:47.204Z,8.75
2023-02-08T04:51:13.525Z,5.72
2023-02-08T04:53:39.801Z,6.50
2023-02-08T04:56:06.394Z,6.15
2023-02-08T04:58:32.715Z,6.65
2023-02-08T05:00:59.087Z,6.25
2023-02-08T05:03:25.408Z,6.63
2023-02-08T05:05:59.053Z,6.40
2023-02-08T05:08:26.002Z,6.28
2023-02-08T05:10:52.457Z,7.03
2023-02-08T05:13:18.733Z,6.88
2023-02-08T05:15:45.935Z,5.97
2023-02-08T05:18:12.257Z,6.45
2023-02-08T05:20:38.739Z,5.97
2023-02-08T05:23:05.935Z,6.55
2023-02-08T05:25:32.386Z,5.65
2023-02-08T05:27:59.979Z,5.13
2023-02-08T05:30:26.305Z,5.97
2023-02-08T05:32:52.612Z,5.25
2023-02-08T05:35:18.920Z,5.30
2023-02-08T05:37:45.222Z,5.03
2023-02-08T05:40:13.001Z,4.50
2023-02-08T05:42:39.322Z,6.10
2023-02-08T05:45:06.100Z,5.45
2023-02-08T05:47:32.415Z,6.00
2023-02-08T05:49:58.730Z,5.63
2023-02-08T05:52:25.071Z,5.22
2023-02-08T05:54:51.424Z,6.13
2023-02-08T05:57:17.719Z,6.07
2023-02-08T05:59:44.066Z,4.93
2023-02-08T06:02:10.378Z,6.00
2023-02-08T06:04:38.983Z,5.88
2023-02-08T06:07:05.457Z,6.70
2023-02-08T06:09:31.757Z,5.80
2023-02-08T06:11:58.122Z,4.95
2023-02-08T06:14:24.965Z,5.63
2023-02-08T06:16:51.341Z,6.07
2023-02-08T06:19:18.178Z,5.63
2023-02-08T06:21:44.497Z,5.93
2023-02-08T06:24:11.395Z,5.50
2023-02-08T06:26:37.895Z,6.32
2023-02-08T06:29:04.606Z,6.03
2023-02-08T06:31:31.367Z,5.97
2023-02-08T06:33:57.806Z,5.60
2023-02-08T06:36:24.398Z,5.55
2023-02-08T06:38:51.415Z,4.13
2023-02-08T06:41:17.811Z,6.10
2023-02-08T06:43:44.279Z,4.32
2023-02-08T06:46:10.873Z,4.22
2023-02-08T06:48:37.662Z,4.68
2023-02-08T06:51:04.530Z,4.78
2023-02-08T06:53:30.902Z,5.10
2023-02-08T06:55:57.262Z,5.15
2023-02-08T06:58:23.713Z,5.25
2023-02-08T07:00:50.300Z,4.85
2023-02-08T07:03:17.606Z,3.90
2023-02-08T07:05:58.711Z,4.65
2023-02-08T07:08:31.004Z,5.20
2023-02-08T07:10:57.493Z,5.15
2023-02-08T07:13:23.913Z,4.65
2023-02-08T07:15:50.274Z,4.85
2023-02-08T07:18:16.633Z,5.50
2023-02-08T07:20:42.975Z,5.57
2023-02-08T07:23:09.387Z,5.82
2023-02-08T07:25:35.799Z,5.63
2023-02-08T07:28:02.890Z,5.22
2023-02-08T07:30:29.443Z,5.45
2023-02-08T07:32:55.938Z,5.35
2023-02-08T07:35:22.343Z,5.55
2023-02-08T07:37:48.806Z,5.30
2023-02-08T07:40:15.406Z,4.97
2023-02-08T07:42:41.769Z,6.40
2023-02-08T07:45:08.624Z,5.03
2023-02-08T07:47:34.981Z,5.30
2023-02-08T07:50:01.443Z,5.45
2023-02-08T07:52:27.867Z,5.65
2023-02-08T07:54:54.201Z,5.97
2023-02-08T07:57:21.986Z,3.63
2023-02-08T07:59:48.479Z,5.47
2023-02-08T08:02:15.359Z,5.15
2023-02-08T08:04:42.113Z,5.07
2023-02-08T08:07:08.577Z,5.25
2023-02-08T08:09:34.886Z,4.85
2023-02-08T08:12:02.107Z,4.53
2023-02-08T08:14:28.440Z,3.88
2023-02-08T08:16:54.772Z,5.43
2023-02-08T08:19:21.158Z,4.97
2023-02-08T08:21:47.513Z,3.13
2023-02-08T08:24:13.817Z,4.88
2023-02-08T08:26:40.197Z,4.97
2023-02-08T08:29:07.031Z,3.80
2023-02-08T08:31:33.377Z,4.28
2023-02-08T08:33:59.747Z,6.20
2023-02-08T08:36:26.113Z,5.28
2023-02-08T08:38:52.826Z,5.22
2023-02-08T08:41:20.958Z,4.25
2023-02-08T08:43:47.885Z,3.28
2023-02-08T08:46:16.355Z,3.72
2023-02-08T08:48:42.842Z,4.80
2023-02-08T08:51:09.373Z,5.28
2023-02-08T08:53:36.915Z,5.03
2023-02-08T08:56:04.630Z,5.05
2023-02-08T08:58:30.922Z,5.03
2023-02-08T09:00:58.868Z,4.28
2023-02-08T09:03:26.610Z,5.38
2023-02-08T09:05:53.575Z,3.55
2023-02-08T09:08:20.284Z,5.22
2023-02-08T09:10:46.868Z,6.20
2023-02-08T09:13:19.140Z,4.07
2023-02-08T09:15:46.150Z,5.30
2023-02-08T09:18:12.655Z,3.25
2023-02-08T09:20:39.399Z,4.20
2023-02-08T09:23:05.753Z,5.18
2023-02-08T09:25:33.268Z,4.97
2023-02-08T09:27:59.723Z,5.47
2023-02-08T09:30:26.050Z,4.65
2023-02-08T09:32:52.355Z,5.65
2023-02-08T09:35:18.773Z,4.93
2023-02-08T09:37:45.086Z,6.15
2023-02-08T09:40:23.692Z,3.63
2023-02-08T09:43:09.494Z,4.88
2023-02-08T09:46:01.636Z,5.10
2023-02-08T09:48:37.218Z,4.32
2023-02-08T09:51:15.926Z,3.08
2023-02-08T09:53:50.127Z,4.93
2023-02-08T09:56:22.423Z,3.67
2023-02-08T09:58:53.691Z,5.28
2023-02-08T10:01:27.589Z,5.25
2023-02-08T10:04:00.460Z,4.32
2023-02-08T10:06:27.112Z,4.60
2023-02-08T10:08:53.969Z,4.47
2023-02-08T10:11:29.117Z,4.78
2023-02-08T10:14:04.576Z,5.30
2023-02-08T10:17:01.605Z,4.78
2023-02-08T10:19:56.133Z,5.10
2023-02-08T10:22:31.353Z,3.60
2023-02-08T10:24:57.656Z,4.40
2023-02-08T10:27:37.418Z,5.50
2023-02-08T10:30:15.748Z,4.93
2023-02-08T10:32:51.247Z,4.10
2023-02-08T10:35:37.597Z,4.50
2023-02-08T10:38:25.182Z,3.88
2023-02-08T10:41:01.690Z,4.40
2023-02-08T10:44:00.831Z,4.95
2023-02-08T10:46:35.463Z,4.70
2023-02-08T10:49:22.452Z,4.03
2023-02-08T10:51:49.389Z,4.70
2023-02-08T10:54:15.945Z,4.93
2023-02-08T10:57:04.894Z,3.45
2023-02-08T10:59:49.454Z,5.18
2023-02-08T11:02:32.534Z,5.35
2023-02-08T11:05:04.577Z,4.95
2023-02-08T11:07:34.636Z,4.10
2023-02-08T11:10:23.057Z,5.18
2023-02-08T11:12:58.813Z,3.97
2023-02-08T11:15:31.421Z,4.35
2023-02-08T11:18:01.552Z,4.03
2023-02-08T11:20:34.581Z,3.10
2023-02-08T11:23:01.310Z,4.65
2023-02-08T11:25:35.862Z,3.67
2023-02-08T11:28:03.037Z,4.63
2023-02-08T11:30:29.779Z,3.92
2023-02-08T11:33:15.570Z,3.83
2023-02-08T11:35:42.519Z,4.18
2023-02-08T11:38:18.928Z,4.20
2023-02-08T11:40:46.207Z,3.80
2023-02-08T11:43:23.361Z,3.67
2023-02-08T11:45:50.390Z,3.83
2023-02-08T11:48:26.423Z,4.22
2023-02-08T11:50:59.330Z,3.40
2023-02-08T11:53:31.095Z,4.00
2023-02-08T11:56:20.339Z,3.90
2023-02-08T11:59:09.699Z,3.85
2023-02-08T12:01:39.041Z,3.60
2023-02-08T12:04:09.643Z,3.75
2023-02-08T12:06:46.707Z,3.40
2023-02-08T12:09:38.350Z,3.75
2023-02-08T12:12:39.651Z,3.67
2023-02-08T12:18:11.976Z,2.65
2023-02-08T12:20:45.430Z,2.80
2023-02-08T12:23:25.999Z,2.70
2023-02-08T12:26:12.505Z,3.28
2023-02-08T12:28:56.943Z,2.55
2023-02-08T12:31:28.049Z,2.55
2023-02-08T12:34:17.569Z,2.80
2023-02-08T12:37:21.491Z,2.42
2023-02-08T12:40:37.668Z,2.35
2023-02-08T12:43:29.897Z,3.13
2023-02-08T12:46:11.413Z,2.22
2023-02-08T12:48:47.650Z,2.00
2023-02-08T12:51:25.126Z,2.58
2023-02-08T12:54:02.940Z,2.42
2023-02-08T12:56:35.981Z,2.53
2023-02-08T12:59:13.045Z,2.30
2023-02-08T13:01:46.377Z,2.42
2023-02-08T13:04:16.966Z,2.60
2023-02-08T13:06:49.786Z,2.58
2023-02-08T13:09:40.307Z,1.98
2023-02-08T13:12:32.973Z,2.75
2023-02-08T13:15:11.972Z,1.92
2023-02-08T13:17:51.579Z,2.50
2023-02-08T13:20:33.188Z,1.83
2023-02-08T13:23:06.233Z,2.13
2023-02-08T13:25:36.502Z,1.80
2023-02-08T13:28:05.723Z,2.30
2023-02-08T13:30:35.407Z,2.67
2023-02-08T13:33:14.493Z,3.10
2023-02-08T13:35:41.152Z,2.20
2023-02-08T13:38:21.559Z,2.63
2023-02-08T13:40:48.077Z,2.38
2023-02-08T13:43:34.716Z,2.45
2023-02-08T13:46:03.220Z,2.67
2023-02-08T13:48:42.787Z,2.28
2023-02-08T13:51:29.262Z,3.03
2023-02-08T13:53:55.579Z,3.53
2023-02-08T13:56:37.173Z,2.92
2023-02-08T13:59:05.914Z,2.67
2023-02-08T14:01:36.204Z,2.50
2023-02-08T14:04:09.716Z,2.70
2023-02-08T14:06:49.682Z,3.15
2023-02-08T14:09:33.576Z,2.90
2023-02-08T14:12:13.354Z,2.90
2023-02-08T14:14:40.049Z,2.88
2023-02-08T14:17:41.895Z,2.90
2023-02-08T14:20:17.262Z,3.28
2023-02-08T14:22:50.598Z,2.83
2023-02-08T14:25:24.404Z,2.55
2023-02-08T14:27:57.502Z,2.85
2023-02-08T14:30:30.232Z,3.22
2023-02-08T14:33:08.710Z,3.00
2023-02-08T14:35:50.549Z,3.53
2023-02-08T14:38:19.580Z,3.42
2023-02-08T14:40:59.392Z,4.30
2023-02-08T14:43:33.298Z,3.45
2023-02-08T14:46:37.548Z,3.80
2023-02-08T14:49:14.700Z,3.25
2023-02-08T14:51:46.841Z,3.28
2023-02-08T14:54:27.201Z,3.17
2023-02-08T14:57:07.562Z,2.97
2023-02-08T14:59:35.604Z,3.13
2023-02-08T15:02:19.583Z,3.22
2023-02-08T15:04:46.705Z,3.30
2023-02-08T15:07:35.155Z,3.05
2023-02-08T15:10:10.798Z,3.50
2023-02-08T15:12:43.120Z,2.90
2023-02-08T15:15:45.727Z,3.30
2023-02-08T15:18:21.105Z,2.83
2023-02-08T15:21:04.467Z,3.00
2023-02-08T15:23:31.126Z,2.95
2023-02-08T15:26:06.419Z,4.88
2023-02-08T15:28:36.564Z,3.33
2023-02-08T15:31:11.363Z,2.70
2023-02-08T15:33:40.031Z,2.78
2023-02-08T15:36:21.286Z,2.70
2023-02-08T15:38:59.083Z,3.07
2023-02-08T15:41:36.068Z,3.38
2023-02-08T15:44:21.804Z,2.90
2023-02-08T15:49:42.296Z,3.28
2023-02-08T15:52:16.818Z,3.00
2023-02-08T15:54:44.177Z,2.38
2023-02-08T15:57:31.245Z,2.83
2023-02-08T15:59:58.085Z,3.67
2023-02-08T16:02:27.369Z,2.92
2023-02-08T16:04:54.240Z,2.42
2023-02-08T16:07:25.838Z,2.85
2023-02-08T16:09:53.321Z,2.70
2023-02-08T16:12:23.665Z,3.20
2023-02-08T16:14:52.760Z,3.17
2023-02-08T16:17:48.595Z,3.17
2023-02-08T16:20:26.548Z,2.78
2023-02-08T16:23:03.740Z,2.72
2023-02-08T16:25:45.131Z,2.78
2023-02-08T16:28:32.480Z,3.15
2023-02-08T16:31:02.244Z,3.45
2023-02-08T16:33:30.318Z,3.08
2023-02-08T16:36:02.786Z,3.15
2023-02-08T16:38:32.035Z,3.25
2023-02-08T16:41:12.003Z,2.92
2023-02-08T16:43:46.295Z,3.20
2023-02-08T16:46:16.192Z,3.40
2023-02-08T16:48:54.126Z,3.00
2023-02-08T16:51:29.673Z,3.47
2023-02-08T16:54:01.197Z,3.40
2023-02-08T16:56:27.859Z,3.20
2023-02-08T16:58:54.578Z,3.05
2023-02-08T17:01:23.947Z,2.92
2023-02-08T17:03:52.092Z,2.90
2023-02-08T17:06:26.931Z,3.22
2023-02-08T17:08:53.311Z,3.60
2023-02-08T17:11:19.738Z,3.30
2023-02-08T17:13:46.116Z,3.22
2023-02-08T17:16:19.012Z,3.38
2023-02-08T17:18:46.896Z,2.72
2023-02-08T17:21:13.799Z,3.03
2023-02-08T17:23:40.764Z,3.15
2023-02-08T17:26:15.795Z,3.20
2023-02-08T17:28:43.512Z,2.70
2023-02-08T17:31:14.112Z,3.30
2023-02-08T17:33:40.939Z,3.03
2023-02-08T17:36:09.767Z,3.70
2023-02-08T17:38:39.019Z,3.35
2023-02-08T17:41:13.467Z,2.88
2023-02-08T17:43:39.792Z,3.55
2023-02-08T17:46:16.388Z,3.40
2023-02-08T17:48:43.589Z,4.22
2023-02-08T17:51:16.288Z,4.13
2023-02-08T17:53:43.841Z,4.13
2023-02-08T17:56:13.273Z,5.25
2023-02-08T17:58:41.043Z,3.97
2023-02-08T18:01:10.017Z,4.95
2023-02-08T18:03:36.812Z,6.47
2023-02-08T18:06:05.881Z,7.13
2023-02-08T18:08:32.206Z,6.07
2023-02-08T18:11:06.617Z,8.50
2023-02-08T18:13:35.684Z,8.68
2023-02-08T18:16:10.725Z,5.05
2023-02-08T18:18:37.642Z,5.07
2023-02-08T18:21:14.372Z,5.35
2023-02-08T18:23:41.696Z,4.60
2023-02-08T18:26:11.503Z,4.30
2023-02-08T18:28:38.431Z,4.25
2023-02-08T18:31:07.709Z,4.43
2023-02-08T18:33:35.021Z,4.55
2023-02-08T18:36:01.856Z,5.22
2023-02-08T18:38:28.516Z,4.30
2023-02-08T18:40:54.864Z,4.38
2023-02-08T18:43:21.252Z,4.20
2023-02-08T18:46:06.033Z,4.13
2023-02-08T18:48:33.459Z,4.28
2023-02-08T18:51:02.805Z,4.45
2023-02-08T18:53:31.545Z,5.82
2023-02-08T18:55:59.380Z,6.85
2023-02-08T18:58:26.442Z,4.80
2023-02-08T19:00:53.388Z,5.43
2023-02-08T19:03:21.158Z,5.18
2023-02-08T19:05:48.598Z,4.38
2023-02-08T19:08:16.455Z,4.25
2023-02-08T19:10:43.420Z,3.50
2023-02-08T19:13:10.143Z,3.22
2023-02-08T19:15:38.130Z,3.53
2023-02-08T19:18:06.035Z,3.58
2023-02-08T19:20:37.539Z,2.97
2023-02-08T19:23:05.250Z,3.67
2023-02-08T19:25:35.570Z,3.40
2023-02-08T19:28:02.107Z,3.42
2023-02-08T19:30:28.625Z,3.03
2023-02-08T19:32:55.138Z,3.35
2023-02-08T19:35:21.904Z,3.45
2023-02-08T19:37:50.396Z,3.00
2023-02-08T19:40:18.837Z,2.90
2023-02-08T19:42:45.608Z,3.03
2023-02-08T19:45:12.914Z,2.30
2023-02-08T19:47:50.961Z,2.28
2023-02-08T19:50:18.008Z,2.75
2023-02-08T19:52:44.360Z,2.47
2023-02-08T19:55:10.729Z,2.40
2023-02-08T19:57:40.235Z,2.88
2023-02-08T20:00:17.532Z,2.42
2023-02-08T20:02:47.857Z,2.63
2023-02-08T20:05:14.213Z,2.15
2023-02-08T20:07:40.500Z,2.47
2023-02-08T20:10:07.112Z,2.83
2023-02-08T20:12:33.457Z,2.58
2023-02-08T20:15:00.125Z,2.45
2023-02-08T20:17:26.422Z,2.60
2023-02-08T20:19:52.740Z,2.42
2023-02-08T20:22:19.107Z,1.98
2023-02-08T20:24:45.418Z,3.03
2023-02-08T20:27:11.761Z,2.40
2023-02-08T20:29:38.356Z,2.28
2023-02-08T20:32:04.986Z,2.28
2023-02-08T20:34:31.333Z,2.20
2023-02-08T20:37:07.692Z,3.05
2023-02-08T20:39:35.848Z,2.70
2023-02-08T20:42:02.341Z,2.88
2023-02-08T20:44:28.743Z,2.60
2023-02-08T20:46:55.338Z,2.60
2023-02-08T20:49:25.237Z,2.53
2023-02-08T20:51:53.463Z,2.63
2023-02-08T20:54:20.047Z,3.03
2023-02-08T20:56:46.383Z,2.70
2023-02-08T20:59:16.857Z,2.60
2023-02-08T21:01:46.154Z,2.45
2023-02-08T21:04:13.070Z,3.00
2023-02-08T21:06:44.067Z,2.85
2023-02-08T21:09:16.162Z,2.45
2023-02-08T21:11:43.521Z,2.75
2023-02-08T21:14:18.632Z,2.42
2023-02-08T21:16:48.152Z,2.58
2023-02-08T21:19:15.621Z,3.05
2023-02-08T21:21:42.459Z,2.80
2023-02-08T21:24:11.003Z,3.13
2023-02-08T21:26:37.620Z,2.58
2023-02-08T21:29:06.965Z,3.05
2023-02-08T21:31:36.231Z,2.72
2023-02-08T21:34:02.974Z,3.20
2023-02-08T21:36:30.009Z,3.33
2023-02-08T21:38:59.688Z,2.83
2023-02-08T21:41:29.174Z,2.72
2023-02-08T21:43:57.463Z,2.90
2023-02-08T21:46:30.296Z,3.03
2023-02-08T21:49:16.460Z,4.00
2023-02-08T21:52:02.224Z,3.00
2023-02-08T21:54:45.413Z,3.78
2023-02-08T21:57:11.697Z,3.50
2023-02-08T21:59:38.167Z,3.10
2023-02-08T22:02:05.793Z,2.40
2023-02-08T22:04:33.820Z,3.15
2023-02-08T22:07:01.173Z,3.17
2023-02-08T22:09:28.947Z,3.45
2023-02-08T22:11:59.037Z,3.58
2023-02-08T22:14:25.508Z,3.45
2023-02-08T22:16:51.841Z,3.17
2023-02-08T22:19:18.303Z,3.17
2023-02-08T22:21:44.648Z,3.45
2023-02-08T22:24:11.013Z,3.17
2023-02-08T22:26:37.386Z,3.13
2023-02-08T22:29:03.701Z,3.45
2023-02-08T22:31:30.179Z,3.65
2023-02-08T22:33:56.613Z,2.78
2023-02-08T22:36:22.899Z,3.60
2023-02-08T22:38:49.484Z,3.63
2023-02-08T22:41:17.228Z,3.40
2023-02-08T22:43:44.416Z,2.97
2023-02-08T22:46:11.268Z,3.25
2023-02-08T22:48:38.134Z,3.50
2023-02-08T22:51:09.431Z,3.80
2023-02-08T22:53:35.845Z,3.53
2023-02-08T22:56:02.370Z,4.40
2023-02-08T22:58:28.682Z,3.30
2023-02-08T23:00:55.181Z,4.63
2023-02-08T23:03:21.604Z,3.58
2023-02-08T23:05:50.664Z,3.42
2023-02-08T23:08:19.211Z,3.67
2023-02-08T23:10:46.234Z,3.55
2023-02-08T23:13:12.850Z,4.30
2023-02-08T23:15:41.742Z,3.72
2023-02-08T23:18:08.949Z,4.47
2023-02-08T23:20:40.555Z,3.40
2023-02-08T23:23:07.435Z,3.97
2023-02-08T23:25:33.834Z,3.92
2023-02-08T23:28:00.264Z,3.75
2023-02-08T23:30:26.718Z,3.90
2023-02-08T23:32:53.008Z,3.92
2023-02-08T23:35:19.409Z,3.35
2023-02-08T23:37:45.695Z,3.90
2023-02-08T23:40:12.260Z,4.30
2023-02-08T23:42:38.717Z,4.20
2023-02-08T23:45:05.526Z,4.05
2023-02-08T23:47:31.986Z,3.72
2023-02-08T23:49:58.370Z,3.70
2023-02-08T23:52:24.641Z,3.53
2023-02-08T23:54:51.082Z,3.80
2023-02-08T23:57:17.449Z,4.28
2023-02-08T23:59:43.783Z,3.95
